sensor_id;sensor_type;location;lat;lon;timestamp;pressure;altitude;pressure_sealevel;temperature;humidity
32033;BME280;31720;52.638;9.216;2023-05-14T00:01:27;101701.59;;;12.87;79.81
32033;BME280;31720;52.638;9.216;2023-05-14T00:04:28;101700.88;;;12.83;78.98
32033;BME280;31720;52.638;9.216;2023-05-14T00:07:29;101696.53;;;12.82;79.72
32033;BME280;31720;52.638;9.216;2023-05-14T00:10:32;101693.41;;;12.74;78.31
32033;BME280;31720;52.638;9.216;2023-05-14T00:13:33;101698.69;;;12.74;80.58
32033;BME280;31720;52.638;9.216;2023-05-14T00:16:34;101688.13;;;12.74;80.21
32033;BME280;31720;52.638;9.216;2023-05-14T00:19:36;101700.91;;;12.64;79.97
32033;BME280;31720;52.638;9.216;2023-05-14T00:22:41;101701.03;;;12.61;80.89
32033;BME280;31720;52.638;9.216;2023-05-14T00:25:43;101695.13;;;12.56;80.58
32033;BME280;31720;52.638;9.216;2023-05-14T00:28:45;101695.22;;;12.55;80.84
32033;BME280;31720;52.638;9.216;2023-05-14T00:31:46;101686.56;;;12.51;80.82
32033;BME280;31720;52.638;9.216;2023-05-14T00:34:48;101681.59;;;12.45;78.93
32033;BME280;31720;52.638;9.216;2023-05-14T00:37:49;101675.53;;;12.43;78.32
32033;BME280;31720;52.638;9.216;2023-05-14T00:40:52;101683.44;;;12.43;78.20
32033;BME280;31720;52.638;9.216;2023-05-14T00:43:53;101681.72;;;12.42;79.20
32033;BME280;31720;52.638;9.216;2023-05-14T00:46:54;101677.84;;;12.30;79.50
32033;BME280;31720;52.638;9.216;2023-05-14T00:49:56;101678.72;;;12.31;79.05
32033;BME280;31720;52.638;9.216;2023-05-14T00:52:57;101679.00;;;12.25;80.46
32033;BME280;31720;52.638;9.216;2023-05-14T00:56:01;101674.06;;;12.17;81.98
32033;BME280;31720;52.638;9.216;2023-05-14T00:59:02;101679.34;;;12.17;83.88
32033;BME280;31720;52.638;9.216;2023-05-14T01:02:04;101677.00;;;12.11;83.02
32033;BME280;31720;52.638;9.216;2023-05-14T01:05:05;101674.47;;;12.08;83.59
32033;BME280;31720;52.638;9.216;2023-05-14T01:08:13;101671.47;;;11.97;83.90
32033;BME280;31720;52.638;9.216;2023-05-14T01:11:23;101669.97;;;11.91;84.11
32033;BME280;31720;52.638;9.216;2023-05-14T01:14:31;101666.13;;;11.98;84.90
32033;BME280;31720;52.638;9.216;2023-05-14T01:17:38;101662.66;;;11.98;85.68
32033;BME280;31720;52.638;9.216;2023-05-14T01:20:41;101673.91;;;12.01;86.40
32033;BME280;31720;52.638;9.216;2023-05-14T01:23:44;101681.94;;;11.98;85.48
32033;BME280;31720;52.638;9.216;2023-05-14T01:26:46;101675.69;;;12.01;86.30
32033;BME280;31720;52.638;9.216;2023-05-14T01:29:51;101670.44;;;12.01;86.25
32033;BME280;31720;52.638;9.216;2023-05-14T01:32:55;101680.25;;;11.97;87.31
32033;BME280;31720;52.638;9.216;2023-05-14T01:35:59;101667.78;;;12.01;87.44
32033;BME280;31720;52.638;9.216;2023-05-14T01:39:02;101670.72;;;11.95;86.66
32033;BME280;31720;52.638;9.216;2023-05-14T01:42:04;101672.66;;;11.89;85.94
32033;BME280;31720;52.638;9.216;2023-05-14T01:45:07;101673.66;;;11.87;86.85
32033;BME280;31720;52.638;9.216;2023-05-14T01:48:09;101677.28;;;11.84;87.51
32033;BME280;31720;52.638;9.216;2023-05-14T01:51:10;101670.47;;;11.79;87.34
32033;BME280;31720;52.638;9.216;2023-05-14T01:54:15;101670.69;;;11.74;88.48
32033;BME280;31720;52.638;9.216;2023-05-14T01:57:16;101671.72;;;11.70;88.31
32033;BME280;31720;52.638;9.216;2023-05-14T02:00:17;101672.78;;;11.66;87.75
32033;BME280;31720;52.638;9.216;2023-05-14T02:03:19;101666.59;;;11.67;88.35
32033;BME280;31720;52.638;9.216;2023-05-14T02:06:20;101669.41;;;11.62;88.92
32033;BME280;31720;52.638;9.216;2023-05-14T02:09:23;101667.06;;;11.56;88.38
32033;BME280;31720;52.638;9.216;2023-05-14T02:12:24;101665.44;;;11.54;89.42
32033;BME280;31720;52.638;9.216;2023-05-14T02:15:26;101667.19;;;11.53;90.20
32033;BME280;31720;52.638;9.216;2023-05-14T02:18:27;101665.16;;;11.60;90.34
32033;BME280;31720;52.638;9.216;2023-05-14T02:21:28;101659.78;;;11.63;90.02
32033;BME280;31720;52.638;9.216;2023-05-14T02:24:32;101656.84;;;11.69;89.92
32033;BME280;31720;52.638;9.216;2023-05-14T02:27:33;101655.41;;;11.62;91.06
32033;BME280;31720;52.638;9.216;2023-05-14T02:30:35;101652.06;;;11.58;92.16
32033;BME280;31720;52.638;9.216;2023-05-14T02:33:36;101648.81;;;11.52;93.28
32033;BME280;31720;52.638;9.216;2023-05-14T02:36:37;101649.84;;;11.49;93.47
32033;BME280;31720;52.638;9.216;2023-05-14T02:39:40;101645.53;;;11.47;93.31
32033;BME280;31720;52.638;9.216;2023-05-14T02:42:41;101636.59;;;11.51;94.20
32033;BME280;31720;52.638;9.216;2023-05-14T02:45:43;101645.22;;;11.54;94.08
32033;BME280;31720;52.638;9.216;2023-05-14T02:48:44;101647.13;;;11.51;94.61
32033;BME280;31720;52.638;9.216;2023-05-14T02:51:45;101646.38;;;11.47;95.64
32033;BME280;31720;52.638;9.216;2023-05-14T02:54:48;101643.84;;;11.46;96.56
32033;BME280;31720;52.638;9.216;2023-05-14T02:57:49;101640.53;;;11.40;96.93
32033;BME280;31720;52.638;9.216;2023-05-14T03:00:52;101647.50;;;11.41;96.65
32033;BME280;31720;52.638;9.216;2023-05-14T03:03:53;101644.03;;;11.41;97.37
32033;BME280;31720;52.638;9.216;2023-05-14T03:06:54;101639.75;;;11.38;97.50
32033;BME280;31720;52.638;9.216;2023-05-14T03:09:57;101642.38;;;11.38;97.59
32033;BME280;31720;52.638;9.216;2023-05-14T03:12:59;101641.31;;;11.42;99.01
32033;BME280;31720;52.638;9.216;2023-05-14T03:16:01;101633.34;;;11.44;98.80
32033;BME280;31720;52.638;9.216;2023-05-14T03:19:02;101634.34;;;11.41;99.51
32033;BME280;31720;52.638;9.216;2023-05-14T03:22:03;101639.75;;;11.38;99.63
32033;BME280;31720;52.638;9.216;2023-05-14T03:25:07;101642.50;;;11.35;100.00
32033;BME280;31720;52.638;9.216;2023-05-14T03:28:08;101638.16;;;11.34;100.00
32033;BME280;31720;52.638;9.216;2023-05-14T03:31:10;101636.53;;;11.32;100.00
32033;BME280;31720;52.638;9.216;2023-05-14T03:34:11;101635.47;;;11.36;100.00
32033;BME280;31720;52.638;9.216;2023-05-14T03:37:12;101633.69;;;11.36;100.00
32033;BME280;31720;52.638;9.216;2023-05-14T03:40:15;101637.31;;;11.34;100.00
32033;BME280;31720;52.638;9.216;2023-05-14T03:43:16;101631.47;;;11.27;100.00
32033;BME280;31720;52.638;9.216;2023-05-14T03:46:18;101634.94;;;11.28;100.00
32033;BME280;31720;52.638;9.216;2023-05-14T03:49:19;101633.28;;;11.25;100.00
32033;BME280;31720;52.638;9.216;2023-05-14T03:52:20;101630.84;;;11.21;100.00
32033;BME280;31720;52.638;9.216;2023-05-14T03:55:23;101633.63;;;11.17;100.00
32033;BME280;31720;52.638;9.216;2023-05-14T03:58:24;101631.88;;;11.16;100.00
32033;BME280;31720;52.638;9.216;2023-05-14T04:01:26;101626.56;;;11.18;100.00
32033;BME280;31720;52.638;9.216;2023-05-14T04:04:27;101631.03;;;11.16;100.00
32033;BME280;31720;52.638;9.216;2023-05-14T04:07:28;101627.63;;;11.14;100.00
32033;BME280;31720;52.638;9.216;2023-05-14T04:10:31;101634.41;;;11.20;100.00
32033;BME280;31720;52.638;9.216;2023-05-14T04:13:33;101633.47;;;11.21;100.00
32033;BME280;31720;52.638;9.216;2023-05-14T04:16:34;101638.63;;;11.24;100.00
32033;BME280;31720;52.638;9.216;2023-05-14T04:19:35;101639.34;;;11.27;100.00
32033;BME280;31720;52.638;9.216;2023-05-14T04:22:37;101634.09;;;11.27;100.00
32033;BME280;31720;52.638;9.216;2023-05-14T04:25:39;101637.41;;;11.31;100.00
32033;BME280;31720;52.638;9.216;2023-05-14T04:28:41;101638.09;;;11.36;100.00
32033;BME280;31720;52.638;9.216;2023-05-14T04:31:43;101636.25;;;11.38;100.00
32033;BME280;31720;52.638;9.216;2023-05-14T04:34:44;101632.56;;;11.42;100.00
32033;BME280;31720;52.638;9.216;2023-05-14T04:37:46;101641.03;;;11.49;100.00
32033;BME280;31720;52.638;9.216;2023-05-14T04:40:50;101638.50;;;11.47;100.00
32033;BME280;31720;52.638;9.216;2023-05-14T04:43:54;101642.63;;;11.53;100.00
32033;BME280;31720;52.638;9.216;2023-05-14T04:46:56;101653.97;;;11.55;100.00
32033;BME280;31720;52.638;9.216;2023-05-14T04:49:57;101653.56;;;11.64;100.00
32033;BME280;31720;52.638;9.216;2023-05-14T04:52:58;101647.09;;;11.71;100.00
32033;BME280;31720;52.638;9.216;2023-05-14T04:56:01;101640.13;;;11.70;100.00
32033;BME280;31720;52.638;9.216;2023-05-14T04:59:02;101647.72;;;11.78;100.00
32033;BME280;31720;52.638;9.216;2023-05-14T05:02:04;101652.53;;;11.88;100.00
32033;BME280;31720;52.638;9.216;2023-05-14T05:05:06;101657.06;;;11.85;100.00
32033;BME280;31720;52.638;9.216;2023-05-14T05:08:07;101647.06;;;11.93;100.00
32033;BME280;31720;52.638;9.216;2023-05-14T05:11:11;101646.72;;;12.01;100.00
32033;BME280;31720;52.638;9.216;2023-05-14T05:14:13;101656.84;;;12.10;100.00
32033;BME280;31720;52.638;9.216;2023-05-14T05:17:14;101648.22;;;12.06;100.00
32033;BME280;31720;52.638;9.216;2023-05-14T05:20:16;101656.72;;;12.13;100.00
32033;BME280;31720;52.638;9.216;2023-05-14T05:23:17;101655.63;;;12.17;100.00
32033;BME280;31720;52.638;9.216;2023-05-14T05:26:20;101651.03;;;12.22;100.00
32033;BME280;31720;52.638;9.216;2023-05-14T05:29:22;101653.44;;;12.27;100.00
32033;BME280;31720;52.638;9.216;2023-05-14T05:32:23;101658.50;;;12.31;100.00
32033;BME280;31720;52.638;9.216;2023-05-14T05:35:25;101653.16;;;12.33;100.00
32033;BME280;31720;52.638;9.216;2023-05-14T05:38:26;101654.44;;;12.43;100.00
32033;BME280;31720;52.638;9.216;2023-05-14T05:41:29;101649.66;;;12.51;100.00
32033;BME280;31720;52.638;9.216;2023-05-14T05:44:30;101655.03;;;12.50;100.00
32033;BME280;31720;52.638;9.216;2023-05-14T05:47:31;101651.09;;;12.58;100.00
32033;BME280;31720;52.638;9.216;2023-05-14T05:50:33;101649.09;;;12.63;100.00
32033;BME280;31720;52.638;9.216;2023-05-14T05:53:34;101651.50;;;12.68;100.00
32033;BME280;31720;52.638;9.216;2023-05-14T05:56:37;101653.31;;;12.67;100.00
32033;BME280;31720;52.638;9.216;2023-05-14T05:59:38;101656.63;;;12.71;100.00
32033;BME280;31720;52.638;9.216;2023-05-14T06:02:40;101646.56;;;12.79;100.00
32033;BME280;31720;52.638;9.216;2023-05-14T06:05:41;101653.41;;;12.83;100.00
32033;BME280;31720;52.638;9.216;2023-05-14T06:08:43;101652.25;;;12.89;100.00
32033;BME280;31720;52.638;9.216;2023-05-14T06:11:45;101657.31;;;12.93;100.00
32033;BME280;31720;52.638;9.216;2023-05-14T06:14:47;101649.97;;;13.00;100.00
32033;BME280;31720;52.638;9.216;2023-05-14T06:17:48;101648.78;;;13.06;100.00
32033;BME280;31720;52.638;9.216;2023-05-14T06:20:49;101652.78;;;13.14;100.00
32033;BME280;31720;52.638;9.216;2023-05-14T06:23:51;101647.91;;;13.24;100.00
32033;BME280;31720;52.638;9.216;2023-05-14T06:26:53;101655.69;;;13.27;100.00
32033;BME280;31720;52.638;9.216;2023-05-14T06:29:55;101651.03;;;13.32;100.00
32033;BME280;31720;52.638;9.216;2023-05-14T06:32:56;101657.47;;;13.44;100.00
32033;BME280;31720;52.638;9.216;2023-05-14T06:35:58;101651.03;;;13.50;100.00
32033;BME280;31720;52.638;9.216;2023-05-14T06:38:59;101654.91;;;13.60;100.00
32033;BME280;31720;52.638;9.216;2023-05-14T06:42:03;101658.16;;;13.65;100.00
32033;BME280;31720;52.638;9.216;2023-05-14T06:45:05;101656.38;;;13.65;100.00
32033;BME280;31720;52.638;9.216;2023-05-14T06:48:07;101654.34;;;13.70;100.00
32033;BME280;31720;52.638;9.216;2023-05-14T06:51:09;101646.16;;;13.75;100.00
32033;BME280;31720;52.638;9.216;2023-05-14T06:54:12;101650.13;;;13.84;100.00
32033;BME280;31720;52.638;9.216;2023-05-14T06:57:14;101646.16;;;13.92;100.00
32033;BME280;31720;52.638;9.216;2023-05-14T07:00:17;101652.72;;;14.01;100.00
32033;BME280;31720;52.638;9.216;2023-05-14T07:03:18;101637.31;;;14.09;100.00
32033;BME280;31720;52.638;9.216;2023-05-14T07:06:21;101640.31;;;14.19;100.00
32033;BME280;31720;52.638;9.216;2023-05-14T07:09:22;101623.81;;;14.31;98.25
32033;BME280;31720;52.638;9.216;2023-05-14T07:12:25;101631.13;;;14.42;94.03
32033;BME280;31720;52.638;9.216;2023-05-14T07:15:27;101626.31;;;14.50;92.21
32033;BME280;31720;52.638;9.216;2023-05-14T07:18:28;101636.44;;;14.58;95.11
32033;BME280;31720;52.638;9.216;2023-05-14T07:21:30;101622.97;;;14.62;91.93
32033;BME280;31720;52.638;9.216;2023-05-14T07:24:32;101620.00;;;14.68;90.73
32033;BME280;31720;52.638;9.216;2023-05-14T07:27:34;101612.28;;;14.80;91.14
32033;BME280;31720;52.638;9.216;2023-05-14T07:30:36;101618.25;;;14.83;88.54
32033;BME280;31720;52.638;9.216;2023-05-14T07:33:37;101615.06;;;14.92;89.32
32033;BME280;31720;52.638;9.216;2023-05-14T07:36:38;101614.50;;;14.87;89.11
32033;BME280;31720;52.638;9.216;2023-05-14T07:39:40;101609.63;;;14.95;86.62
32033;BME280;31720;52.638;9.216;2023-05-14T07:42:42;101604.81;;;15.02;87.07
32033;BME280;31720;52.638;9.216;2023-05-14T07:45:44;101595.56;;;15.09;84.98
32033;BME280;31720;52.638;9.216;2023-05-14T07:48:45;101596.16;;;15.14;84.34
32033;BME280;31720;52.638;9.216;2023-05-14T07:51:47;101602.97;;;15.18;83.00
32033;BME280;31720;52.638;9.216;2023-05-14T07:54:49;101601.66;;;15.26;82.25
32033;BME280;31720;52.638;9.216;2023-05-14T07:57:53;101595.06;;;15.33;82.74
32033;BME280;31720;52.638;9.216;2023-05-14T08:00:54;101598.47;;;15.35;84.98
32033;BME280;31720;52.638;9.216;2023-05-14T08:03:56;101595.47;;;15.41;82.08
32033;BME280;31720;52.638;9.216;2023-05-14T08:06:58;101599.06;;;15.40;81.19
32033;BME280;31720;52.638;9.216;2023-05-14T08:09:59;101596.13;;;15.44;80.48
32033;BME280;31720;52.638;9.216;2023-05-14T08:13:02;101594.34;;;15.45;81.55
32033;BME280;31720;52.638;9.216;2023-05-14T08:16:05;101594.63;;;15.55;79.53
32033;BME280;31720;52.638;9.216;2023-05-14T08:19:06;101593.16;;;15.65;81.12
32033;BME280;31720;52.638;9.216;2023-05-14T08:22:07;101600.38;;;15.77;78.74
32033;BME280;31720;52.638;9.216;2023-05-14T08:25:09;101593.94;;;15.81;79.13
32033;BME280;31720;52.638;9.216;2023-05-14T08:28:12;101596.28;;;15.86;77.14
32033;BME280;31720;52.638;9.216;2023-05-14T08:31:13;101589.00;;;16.04;76.44
32033;BME280;31720;52.638;9.216;2023-05-14T08:34:15;101587.09;;;16.06;75.21
32033;BME280;31720;52.638;9.216;2023-05-14T08:37:16;101590.84;;;16.16;75.04
32033;BME280;31720;52.638;9.216;2023-05-14T08:40:18;101582.91;;;16.16;75.63
32033;BME280;31720;52.638;9.216;2023-05-14T08:43:23;101575.72;;;16.18;74.81
32033;BME280;31720;52.638;9.216;2023-05-14T08:46:29;101574.28;;;16.27;75.62
32033;BME280;31720;52.638;9.216;2023-05-14T08:49:36;101575.88;;;16.29;73.03
32033;BME280;31720;52.638;9.216;2023-05-14T08:52:40;101576.63;;;16.31;73.41
32033;BME280;31720;52.638;9.216;2023-05-14T08:55:41;101570.69;;;16.55;72.84
32033;BME280;31720;52.638;9.216;2023-05-14T08:58:45;101579.09;;;16.61;74.50
32033;BME280;31720;52.638;9.216;2023-05-14T09:01:47;101565.06;;;16.59;72.14
32033;BME280;31720;52.638;9.216;2023-05-14T09:04:53;101566.59;;;16.63;71.84
32033;BME280;31720;52.638;9.216;2023-05-14T09:07:55;101560.75;;;16.71;71.55
32033;BME280;31720;52.638;9.216;2023-05-14T09:10:57;101560.81;;;16.84;70.60
32033;BME280;31720;52.638;9.216;2023-05-14T09:13:59;101565.44;;;16.94;71.96
32033;BME280;31720;52.638;9.216;2023-05-14T09:17:01;101554.38;;;17.01;68.97
32033;BME280;31720;52.638;9.216;2023-05-14T09:20:03;101557.16;;;17.12;69.35
32033;BME280;31720;52.638;9.216;2023-05-14T09:23:04;101550.81;;;17.14;67.26
32033;BME280;31720;52.638;9.216;2023-05-14T09:26:06;101546.66;;;17.10;68.34
32033;BME280;31720;52.638;9.216;2023-05-14T09:29:08;101550.91;;;17.13;68.98
32033;BME280;31720;52.638;9.216;2023-05-14T09:32:10;101541.03;;;17.15;70.59
32033;BME280;31720;52.638;9.216;2023-05-14T09:35:13;101540.91;;;17.29;68.96
32033;BME280;31720;52.638;9.216;2023-05-14T09:38:16;101539.44;;;17.38;67.64
32033;BME280;31720;52.638;9.216;2023-05-14T09:41:17;101533.47;;;17.47;68.14
32033;BME280;31720;52.638;9.216;2023-05-14T09:44:23;101523.06;;;17.57;65.87
32033;BME280;31720;52.638;9.216;2023-05-14T09:47:25;101524.53;;;17.61;64.31
32033;BME280;31720;52.638;9.216;2023-05-14T09:50:26;101531.13;;;17.68;65.77
32033;BME280;31720;52.638;9.216;2023-05-14T09:53:28;101520.28;;;17.71;65.10
32033;BME280;31720;52.638;9.216;2023-05-14T09:56:31;101519.03;;;17.77;64.25
32033;BME280;31720;52.638;9.216;2023-05-14T09:59:33;101517.19;;;17.90;64.37
32033;BME280;31720;52.638;9.216;2023-05-14T10:02:36;101511.63;;;18.06;64.07
32033;BME280;31720;52.638;9.216;2023-05-14T10:05:40;101509.91;;;18.05;63.84
32033;BME280;31720;52.638;9.216;2023-05-14T10:08:43;101508.63;;;18.10;63.58
32033;BME280;31720;52.638;9.216;2023-05-14T10:11:47;101512.47;;;18.06;64.79
32033;BME280;31720;52.638;9.216;2023-05-14T10:14:54;101511.25;;;18.23;63.33
32033;BME280;31720;52.638;9.216;2023-05-14T10:18:01;101512.94;;;18.24;64.39
32033;BME280;31720;52.638;9.216;2023-05-14T10:21:04;101503.72;;;18.17;63.20
32033;BME280;31720;52.638;9.216;2023-05-14T10:24:07;101503.00;;;18.02;63.88
32033;BME280;31720;52.638;9.216;2023-05-14T10:27:10;101506.16;;;18.07;65.48
32033;BME280;31720;52.638;9.216;2023-05-14T10:30:13;101499.34;;;18.16;62.51
32033;BME280;31720;52.638;9.216;2023-05-14T10:33:15;101506.41;;;18.04;62.64
32033;BME280;31720;52.638;9.216;2023-05-14T10:36:19;101501.94;;;18.05;65.65
32033;BME280;31720;52.638;9.216;2023-05-14T10:39:22;101495.78;;;18.04;65.46
32033;BME280;31720;52.638;9.216;2023-05-14T10:42:25;101490.34;;;18.30;66.72
32033;BME280;31720;52.638;9.216;2023-05-14T10:45:29;101485.25;;;18.27;65.13
32033;BME280;31720;52.638;9.216;2023-05-14T10:48:33;101490.41;;;18.41;63.92
32033;BME280;31720;52.638;9.216;2023-05-14T10:51:35;101486.72;;;18.66;61.93
32033;BME280;31720;52.638;9.216;2023-05-14T10:54:36;101482.47;;;18.87;61.55
32033;BME280;31720;52.638;9.216;2023-05-14T10:57:38;101482.63;;;18.97;61.92
32033;BME280;31720;52.638;9.216;2023-05-14T11:00:41;101479.34;;;18.93;60.55
32033;BME280;31720;52.638;9.216;2023-05-14T11:03:51;101465.69;;;19.09;57.40
32033;BME280;31720;52.638;9.216;2023-05-14T11:06:55;101470.66;;;19.25;58.66
32033;BME280;31720;52.638;9.216;2023-05-14T11:10:00;101469.72;;;19.48;58.61
32033;BME280;31720;52.638;9.216;2023-05-14T11:13:01;101467.03;;;19.60;57.83
32033;BME280;31720;52.638;9.216;2023-05-14T11:16:05;101468.38;;;19.76;54.59
32033;BME280;31720;52.638;9.216;2023-05-14T11:19:06;101450.94;;;19.72;53.75
32033;BME280;31720;52.638;9.216;2023-05-14T11:22:08;101455.88;;;19.88;54.65
32033;BME280;31720;52.638;9.216;2023-05-14T11:25:10;101446.50;;;20.05;50.96
32033;BME280;31720;52.638;9.216;2023-05-14T11:28:13;101443.53;;;20.19;52.32
32033;BME280;31720;52.638;9.216;2023-05-14T11:31:16;101435.38;;;20.21;55.71
32033;BME280;31720;52.638;9.216;2023-05-14T11:34:18;101431.00;;;20.31;52.90
32033;BME280;31720;52.638;9.216;2023-05-14T11:37:19;101425.72;;;20.41;52.17
32033;BME280;31720;52.638;9.216;2023-05-14T11:40:21;101424.00;;;20.51;50.07
32033;BME280;31720;52.638;9.216;2023-05-14T11:43:22;101433.13;;;20.48;51.25
32033;BME280;31720;52.638;9.216;2023-05-14T11:46:25;101431.56;;;20.67;51.52
32033;BME280;31720;52.638;9.216;2023-05-14T11:49:29;101416.53;;;20.96;52.62
32033;BME280;31720;52.638;9.216;2023-05-14T11:52:36;101420.22;;;21.26;48.61
32033;BME280;31720;52.638;9.216;2023-05-14T11:55:37;101413.59;;;21.30;43.14
32033;BME280;31720;52.638;9.216;2023-05-14T11:58:39;101414.75;;;21.07;50.75
32033;BME280;31720;52.638;9.216;2023-05-14T12:01:42;101411.44;;;21.14;49.47
32033;BME280;31720;52.638;9.216;2023-05-14T12:04:49;101416.09;;;21.52;49.33
32033;BME280;31720;52.638;9.216;2023-05-14T12:07:50;101403.03;;;21.69;46.99
32033;BME280;31720;52.638;9.216;2023-05-14T12:10:52;101404.22;;;21.86;48.44
32033;BME280;31720;52.638;9.216;2023-05-14T12:13:53;101395.91;;;21.98;45.61
32033;BME280;31720;52.638;9.216;2023-05-14T12:16:56;101395.19;;;22.06;45.14
32033;BME280;31720;52.638;9.216;2023-05-14T12:19:57;101389.41;;;22.01;48.14
32033;BME280;31720;52.638;9.216;2023-05-14T12:22:59;101380.72;;;22.18;46.74
32033;BME280;31720;52.638;9.216;2023-05-14T12:26:01;101378.31;;;22.25;45.57
32033;BME280;31720;52.638;9.216;2023-05-14T12:29:05;101385.06;;;22.39;44.09
32033;BME280;31720;52.638;9.216;2023-05-14T12:32:08;101389.28;;;22.51;44.30
32033;BME280;31720;52.638;9.216;2023-05-14T12:35:10;101384.75;;;22.51;41.94
32033;BME280;31720;52.638;9.216;2023-05-14T12:38:11;101379.13;;;22.54;42.39
32033;BME280;31720;52.638;9.216;2023-05-14T12:41:12;101371.06;;;22.64;42.91
32033;BME280;31720;52.638;9.216;2023-05-14T12:44:14;101360.25;;;22.93;43.26
32033;BME280;31720;52.638;9.216;2023-05-14T12:47:16;101363.16;;;23.10;40.37
32033;BME280;31720;52.638;9.216;2023-05-14T12:50:18;101354.47;;;23.25;45.80
32033;BME280;31720;52.638;9.216;2023-05-14T12:53:20;101353.44;;;23.36;43.39
32033;BME280;31720;52.638;9.216;2023-05-14T12:56:21;101341.94;;;23.26;43.16
32033;BME280;31720;52.638;9.216;2023-05-14T12:59:27;101350.75;;;23.36;43.17
32033;BME280;31720;52.638;9.216;2023-05-14T13:02:29;101337.22;;;23.55;43.58
32033;BME280;31720;52.638;9.216;2023-05-14T13:05:31;101333.19;;;23.69;43.04
32033;BME280;31720;52.638;9.216;2023-05-14T13:08:32;101336.97;;;23.76;42.21
32033;BME280;31720;52.638;9.216;2023-05-14T13:11:34;101337.41;;;23.72;39.45
32033;BME280;31720;52.638;9.216;2023-05-14T13:14:35;101320.53;;;23.97;39.67
32033;BME280;31720;52.638;9.216;2023-05-14T13:17:38;101319.09;;;24.03;43.32
32033;BME280;31720;52.638;9.216;2023-05-14T13:20:40;101317.22;;;24.03;38.83
32033;BME280;31720;52.638;9.216;2023-05-14T13:23:41;101323.03;;;24.17;39.82
32033;BME280;31720;52.638;9.216;2023-05-14T13:26:43;101316.84;;;23.98;38.28
32033;BME280;31720;52.638;9.216;2023-05-14T13:29:44;101313.91;;;24.10;39.69
32033;BME280;31720;52.638;9.216;2023-05-14T13:32:47;101312.97;;;24.19;40.07
32033;BME280;31720;52.638;9.216;2023-05-14T13:35:48;101322.09;;;24.26;38.29
32033;BME280;31720;52.638;9.216;2023-05-14T13:38:50;101317.22;;;24.21;38.75
32033;BME280;31720;52.638;9.216;2023-05-14T13:41:52;101318.53;;;23.99;40.23
32033;BME280;31720;52.638;9.216;2023-05-14T13:44:56;101304.44;;;24.23;39.30
32033;BME280;31720;52.638;9.216;2023-05-14T13:47:58;101301.72;;;23.97;39.75
32033;BME280;31720;52.638;9.216;2023-05-14T13:51:00;101297.00;;;23.91;37.73
32033;BME280;31720;52.638;9.216;2023-05-14T13:54:01;101296.22;;;23.63;40.43
32033;BME280;31720;52.638;9.216;2023-05-14T13:57:03;101298.38;;;23.77;41.24
32033;BME280;31720;52.638;9.216;2023-05-14T14:00:06;101293.06;;;24.03;39.84
32033;BME280;31720;52.638;9.216;2023-05-14T14:03:09;101282.22;;;24.13;39.34
32033;BME280;31720;52.638;9.216;2023-05-14T14:06:10;101274.66;;;23.55;39.21
32033;BME280;31720;52.638;9.216;2023-05-14T14:09:12;101270.00;;;23.12;39.79
32033;BME280;31720;52.638;9.216;2023-05-14T14:12:13;101272.25;;;23.16;40.92
32033;BME280;31720;52.638;9.216;2023-05-14T14:15:14;101277.53;;;23.08;42.05
32033;BME280;31720;52.638;9.216;2023-05-14T14:18:17;101274.28;;;22.77;40.49
32033;BME280;31720;52.638;9.216;2023-05-14T14:21:18;101265.50;;;22.47;40.23
32033;BME280;31720;52.638;9.216;2023-05-14T14:24:20;101272.03;;;22.25;43.26
32033;BME280;31720;52.638;9.216;2023-05-14T14:27:21;101272.06;;;22.06;42.53
32033;BME280;31720;52.638;9.216;2023-05-14T14:30:22;101268.94;;;22.11;43.77
32033;BME280;31720;52.638;9.216;2023-05-14T14:33:25;101271.50;;;22.02;45.20
32033;BME280;31720;52.638;9.216;2023-05-14T14:36:27;101259.69;;;21.95;44.59
32033;BME280;31720;52.638;9.216;2023-05-14T14:39:29;101258.41;;;22.19;46.42
32033;BME280;31720;52.638;9.216;2023-05-14T14:42:31;101253.38;;;22.43;43.75
32033;BME280;31720;52.638;9.216;2023-05-14T14:45:32;101250.50;;;22.64;45.18
32033;BME280;31720;52.638;9.216;2023-05-14T14:48:35;101246.19;;;22.81;45.13
32033;BME280;31720;52.638;9.216;2023-05-14T14:51:37;101249.31;;;22.76;41.91
32033;BME280;31720;52.638;9.216;2023-05-14T14:54:39;101246.75;;;22.47;44.33
32033;BME280;31720;52.638;9.216;2023-05-14T14:57:40;101252.06;;;22.20;43.52
32033;BME280;31720;52.638;9.216;2023-05-14T15:00:42;101255.03;;;21.97;43.95
32033;BME280;31720;52.638;9.216;2023-05-14T15:03:45;101257.16;;;21.84;45.01
32033;BME280;31720;52.638;9.216;2023-05-14T15:06:47;101262.38;;;21.95;44.49
32033;BME280;31720;52.638;9.216;2023-05-14T15:09:48;101263.22;;;21.76;45.15
32033;BME280;31720;52.638;9.216;2023-05-14T15:12:50;101259.00;;;21.84;44.77
32033;BME280;31720;52.638;9.216;2023-05-14T15:15:51;101261.53;;;21.85;45.88
32033;BME280;31720;52.638;9.216;2023-05-14T15:18:54;101259.41;;;21.89;44.41
32033;BME280;31720;52.638;9.216;2023-05-14T15:21:55;101256.88;;;21.87;44.14
32033;BME280;31720;52.638;9.216;2023-05-14T15:24:56;101253.63;;;21.84;43.48
32033;BME280;31720;52.638;9.216;2023-05-14T15:27:58;101253.63;;;21.84;42.10
32033;BME280;31720;52.638;9.216;2023-05-14T15:30:59;101250.38;;;21.80;45.96
32033;BME280;31720;52.638;9.216;2023-05-14T15:34:02;101252.13;;;21.71;45.13
32033;BME280;31720;52.638;9.216;2023-05-14T15:37:04;101244.22;;;21.60;43.78
32033;BME280;31720;52.638;9.216;2023-05-14T15:40:07;101232.84;;;21.58;45.66
32033;BME280;31720;52.638;9.216;2023-05-14T15:43:09;101233.78;;;21.57;44.54
32033;BME280;31720;52.638;9.216;2023-05-14T15:46:10;101228.88;;;21.62;45.71
32033;BME280;31720;52.638;9.216;2023-05-14T15:49:13;101229.00;;;21.61;43.59